createdAt,value
2022-10-23T00:10:00.187Z,16
2022-10-23T00:20:00.261Z,15.5
2022-10-23T00:30:00.220Z,15.5
2022-10-23T00:40:00.244Z,15.5
2022-10-23T00:50:00.365Z,15.5
2022-10-23T01:00:00.243Z,16
2022-10-23T01:10:00.377Z,15.5
2022-10-23T01:20:00.477Z,15.5
2022-10-23T01:30:00.615Z,16
2022-10-23T01:40:00.356Z,15.5
2022-10-23T01:50:00.471Z,15.5
2022-10-23T02:00:00.277Z,15.5
2022-10-23T02:10:00.428Z,15.5
2022-10-23T02:20:00.495Z,15.5
2022-10-23T02:30:00.415Z,15.5
2022-10-23T02:40:00.553Z,15.5
2022-10-23T02:50:00.345Z,15.5
2022-10-23T03:00:00.418Z,15.5
2022-10-23T03:10:00.362Z,15.5
2022-10-23T03:20:00.477Z,15.5
2022-10-23T03:30:00.376Z,15.5
2022-10-23T03:40:00.440Z,15.5
2022-10-23T03:50:00.360Z,15.5
2022-10-23T04:00:00.441Z,15.5
2022-10-23T04:10:00.562Z,15
2022-10-23T04:20:00.451Z,14.5
2022-10-23T04:30:00.578Z,14.5
2022-10-23T04:40:00.437Z,14.5
2022-10-23T04:50:00.545Z,14.5
2022-10-23T05:00:00.425Z,14.5
2022-10-23T05:10:00.548Z,14.5
2022-10-23T05:20:00.421Z,14.5
2022-10-23T05:30:00.603Z,14.5
2022-10-23T05:40:00.620Z,14.5
2022-10-23T05:50:00.537Z,14.5
2022-10-23T06:00:00.607Z,14.5
2022-10-23T06:10:00.570Z,14.5
2022-10-23T06:20:00.639Z,14.5
2022-10-23T06:30:00.521Z,14.5
2022-10-23T06:40:00.594Z,14.5
2022-10-23T06:50:00.731Z,14.5
2022-10-23T07:00:00.595Z,15
2022-10-23T07:10:00.762Z,15
2022-10-23T07:20:00.615Z,14.5
2022-10-23T07:30:00.718Z,14.5
2022-10-23T07:40:00.618Z,14.5
2022-10-23T07:50:00.734Z,14.5
2022-10-23T08:00:00.583Z,14.5
2022-10-23T08:10:00.709Z,14.5
2022-10-23T08:20:00.783Z,14.5
2022-10-23T08:30:00.700Z,14.5
2022-10-23T08:40:00.777Z,14.5
2022-10-23T08:50:00.692Z,14.5
2022-10-23T09:00:00.775Z,14.5
2022-10-23T09:10:00.717Z,14.5
2022-10-23T09:20:00.817Z,15
2022-10-23T09:30:00.879Z,15
2022-10-23T09:40:00.771Z,15
2022-10-23T09:50:00.914Z,15
2022-10-23T10:00:00.821Z,15
2022-10-23T10:10:00.925Z,15
2022-10-23T10:20:02.471Z,15
2022-10-23T10:30:00.904Z,15
2022-10-23T10:40:00.760Z,15
2022-10-23T10:50:00.838Z,16
2022-10-23T11:00:00.922Z,18
2022-10-23T11:10:00.851Z,19
2022-10-23T11:20:00.948Z,18.5
2022-10-23T11:30:00.853Z,18
2022-10-23T11:40:00.921Z,17.5
2022-10-23T11:50:01.039Z,17.5
2022-10-23T12:00:00.927Z,17.5
2022-10-23T12:10:01.091Z,18
2022-10-23T12:20:00.920Z,18
2022-10-23T12:30:01.053Z,18
2022-10-23T12:40:00.926Z,18
2022-10-23T12:50:01.040Z,19
2022-10-23T13:00:00.932Z,20
2022-10-23T13:10:01.067Z,19.5
2022-10-23T13:20:00.924Z,19
2022-10-23T13:30:01.050Z,19
2022-10-23T13:40:00.920Z,19.5
2022-10-23T13:50:01.105Z,19.5
2022-10-23T14:00:01.134Z,18.5
2022-10-23T14:10:01.053Z,18.5
2022-10-23T14:20:02.128Z,18.5
2022-10-23T14:30:01.042Z,18.5
2022-10-23T14:40:01.114Z,18.5
2022-10-23T14:50:01.058Z,17.5
2022-10-23T15:00:01.125Z,17.5
2022-10-23T15:10:01.228Z,17.5
2022-10-23T15:20:01.147Z,17.5
2022-10-23T15:30:01.304Z,17.5
2022-10-23T15:40:02.106Z,17.5
2022-10-23T15:50:01.309Z,17.5
2022-10-23T16:00:01.306Z,17.5
2022-10-23T16:10:01.239Z,17.5
2022-10-23T16:20:01.234Z,17.5
2022-10-23T16:30:01.145Z,17
2022-10-23T16:40:01.219Z,16.5
2022-10-23T16:50:01.165Z,16.5
2022-10-23T17:00:01.231Z,16.5
2022-10-23T17:10:01.342Z,16.5
2022-10-23T17:20:01.257Z,16.5
2022-10-23T17:30:01.388Z,16.5
2022-10-23T17:40:01.442Z,16.5
2022-10-23T17:50:01.359Z,16.5
2022-10-23T18:00:01.206Z,15.5
2022-10-23T18:10:01.320Z,15.5
2022-10-23T18:20:02.311Z,15.5
2022-10-23T18:30:01.339Z,15.5
2022-10-23T18:40:01.415Z,15.5
2022-10-23T18:50:01.312Z,15.5
2022-10-23T19:00:01.391Z,15.5
2022-10-23T19:10:01.357Z,15.5
2022-10-23T19:20:01.422Z,15.5
2022-10-23T19:30:01.359Z,15.5
2022-10-23T19:40:01.418Z,15.5
2022-10-23T19:50:01.358Z,15.5
2022-10-23T20:00:01.433Z,15.5
2022-10-23T20:10:01.349Z,15.5
2022-10-23T20:20:01.452Z,15.5
2022-10-23T20:30:01.563Z,15.5
2022-10-23T20:40:01.449Z,15.5
2022-10-23T20:50:01.558Z,15.5
2022-10-23T21:00:01.405Z,15.5
2022-10-23T21:10:01.550Z,15.5
2022-10-23T21:20:01.399Z,15.5
2022-10-23T21:30:01.538Z,15.5
2022-10-23T21:40:01.456Z,15.5
2022-10-23T21:50:01.554Z,15.5
2022-10-23T22:00:01.626Z,15.5
2022-10-23T22:10:01.546Z,15.5
2022-10-23T22:20:01.616Z,15.5
2022-10-23T22:30:01.535Z,15.5
2022-10-23T22:40:01.629Z,15.5
2022-10-23T22:50:01.508Z,15.5
2022-10-23T23:00:01.582Z,15.5
2022-10-23T23:10:01.700Z,15.5
2022-10-23T23:20:01.627Z,15.5
2022-10-23T23:30:01.721Z,15.5
2022-10-23T23:50:01.710Z,15
